Time;durP1;ratioP1;P1;durP2;ratioP2;P2;SDS_P1;SDS_P2;PMS_P1;PMS_P2;Temp;Humidity;BMP_temperature;BMP_pressure;BME280_temperature;BME280_humidity;BME280_pressure;Samples;Min_cycle;Max_cycle;Signal;HPM_P1;HPM_P2
2023/12/17 00:00:36;;;;;;;20.13;10.87;;;;;;;-0.74;100.00;99615.31;5002957;28;20974;-85
2023/12/17 00:03:02;;;;;;;20.30;11.23;;;;;;;-0.74;100.00;99615.31;5003993;28;20507;-84
2023/12/17 00:05:28;;;;;;;21.40;11.57;;;;;;;-0.73;100.00;99603.16;4996160;28;20403;-84
2023/12/17 00:07:54;;;;;;;23.98;11.13;;;;;;;-0.75;100.00;99603.25;4996536;28;20402;-84
2023/12/17 00:10:22;;;;;;;22.13;11.07;;;;;;;-0.75;100.00;99605.06;4997418;28;20450;-84
2023/12/17 00:12:48;;;;;;;21.13;11.10;;;;;;;-0.77;100.00;99604.38;5004142;28;20887;-86
2023/12/17 00:15:14;;;;;;;19.30;10.00;;;;;;;-0.79;100.00;99607.91;5006139;28;20447;-86
2023/12/17 00:17:41;;;;;;;21.53;11.10;;;;;;;-0.80;100.00;99608.84;5007119;28;20403;-86
2023/12/17 00:20:08;;;;;;;25.37;11.80;;;;;;;-0.81;100.00;99606.38;5007083;28;20458;-86
2023/12/17 00:22:36;;;;;;;31.88;14.05;;;;;;;-0.82;100.00;99617.72;5007146;28;20482;-86
2023/12/17 00:25:03;;;;;;;26.80;13.77;;;;;;;-0.83;100.00;99623.88;5001431;28;20809;-84
2023/12/17 00:27:29;;;;;;;26.27;13.47;;;;;;;-0.85;100.00;99629.22;4994255;28;20887;-85
2023/12/17 00:29:55;;;;;;;23.15;12.50;;;;;;;-0.87;100.00;99625.91;4995519;28;20421;-85
2023/12/17 00:32:21;;;;;;;26.38;13.50;;;;;;;-0.87;100.00;99625.91;4996344;28;20402;-84
2023/12/17 00:34:49;;;;;;;26.52;13.57;;;;;;;-0.86;100.00;99622.34;4995106;28;20561;-84
2023/12/17 00:37:15;;;;;;;28.45;13.85;;;;;;;-0.87;100.00;99620.69;4994909;28;20406;-84
2023/12/17 00:39:41;;;;;;;23.80;11.80;;;;;;;-0.87;100.00;99619.88;4994686;28;20475;-84
2023/12/17 00:42:07;;;;;;;23.48;12.40;;;;;;;-0.87;100.00;99628.50;4994955;28;20410;-84
2023/12/17 00:44:33;;;;;;;24.13;12.40;;;;;;;-0.87;100.00;99623.28;4995731;28;20417;-84
2023/12/17 00:47:00;;;;;;;26.73;13.10;;;;;;;-0.87;100.00;99619.88;4998253;28;20402;-85
2023/12/17 00:49:26;;;;;;;28.20;13.80;;;;;;;-0.89;100.00;99620.00;4998485;28;20406;-84
2023/12/17 00:51:53;;;;;;;25.08;12.75;;;;;;;-0.89;100.00;99630.38;4997571;28;20414;-84
2023/12/17 00:54:19;;;;;;;26.17;13.93;;;;;;;-0.90;100.00;99639.13;4997126;28;20985;-84
2023/12/17 00:56:46;;;;;;;26.80;13.02;;;;;;;-0.93;100.00;99623.78;4997989;28;20407;-85
2023/12/17 00:59:12;;;;;;;26.17;13.27;;;;;;;-0.92;100.00;99619.44;4997536;28;20398;-85
2023/12/17 01:01:38;;;;;;;23.17;12.68;;;;;;;-0.94;100.00;99616.94;4997740;28;20894;-84
2023/12/17 01:04:04;;;;;;;28.02;13.73;;;;;;;-0.94;100.00;99619.53;4997772;28;20398;-85
2023/12/17 01:06:31;;;;;;;22.47;12.60;;;;;;;-0.95;100.00;99620.50;4997948;28;20435;-84
2023/12/17 01:08:58;;;;;;;24.58;12.05;;;;;;;-0.97;100.00;99608.56;4997768;28;20474;-84
2023/12/17 01:11:24;;;;;;;21.05;11.63;;;;;;;-0.98;100.00;99612.97;4997891;28;20402;-85
2023/12/17 01:13:50;;;;;;;27.45;13.48;;;;;;;-1.02;100.00;99616.72;4997955;28;20488;-85
2023/12/17 01:16:16;;;;;;;30.17;13.82;;;;;;;-1.01;100.00;99628.78;4997798;28;20413;-85
2023/12/17 01:18:43;;;;;;;28.08;14.60;;;;;;;-1.01;100.00;99631.38;4998501;28;20463;-85
2023/12/17 01:21:09;;;;;;;27.92;13.73;;;;;;;-1.02;100.00;99640.13;4998823;28;20399;-85
2023/12/17 01:23:37;;;;;;;25.95;13.38;;;;;;;-1.03;100.00;99630.66;5003620;28;20485;-85
2023/12/17 01:26:05;;;;;;;22.60;12.90;;;;;;;-1.02;100.00;99634.94;5001766;28;20490;-85
2023/12/17 01:28:31;;;;;;;27.20;13.68;;;;;;;-1.03;100.00;99641.06;4999909;28;20494;-86
2023/12/17 01:30:57;;;;;;;24.08;12.48;;;;;;;-1.03;100.00;99640.25;5002313;28;20434;-85
2023/12/17 01:33:23;;;;;;;23.77;12.43;;;;;;;-1.03;100.00;99643.66;5001844;28;20422;-85
2023/12/17 01:35:49;;;;;;;23.40;12.30;;;;;;;-1.05;100.00;99645.56;5008179;28;20418;-85
2023/12/17 01:38:15;;;;;;;22.17;11.30;;;;;;;-1.06;100.00;99648.31;4998597;28;20413;-85
2023/12/17 01:40:41;;;;;;;22.70;11.30;;;;;;;-1.08;100.00;99640.63;4998152;28;20403;-85
2023/12/17 01:43:09;;;;;;;29.60;13.13;;;;;;;-1.10;100.00;99642.50;4996094;28;20402;-85
2023/12/17 01:45:36;;;;;;;24.63;12.05;;;;;;;-1.10;100.00;99645.09;4996665;28;20755;-85
2023/12/17 01:48:02;;;;;;;23.85;12.40;;;;;;;-1.11;100.00;99646.03;4996624;28;20608;-85
2023/12/17 01:50:28;;;;;;;26.43;13.63;;;;;;;-1.10;100.00;99644.28;4996837;28;20909;-85
2023/12/17 01:52:55;;;;;;;27.63;13.70;;;;;;;-1.12;100.00;99644.38;4996190;28;20476;-85
2023/12/17 01:55:22;;;;;;;33.42;14.30;;;;;;;-1.12;100.00;99644.38;4996166;28;20417;-85
2023/12/17 01:57:48;;;;;;;29.08;13.55;;;;;;;-1.14;100.00;99640.28;4996550;28;20835;-85
2023/12/17 02:00:17;;;;;;;28.65;12.88;;;;;;;-1.15;100.00;99636.03;4997513;28;20481;-85
2023/12/17 02:02:44;;;;;;;25.30;12.23;;;;;;;-1.16;100.00;99637.81;4996907;28;20435;-85
2023/12/17 02:05:10;;;;;;;22.30;11.65;;;;;;;-1.18;100.00;99644.88;4997245;28;20441;-86
2023/12/17 02:07:39;;;;;;;23.33;11.65;;;;;;;-1.19;100.00;99645.81;5000543;28;20497;-85
2023/12/17 02:10:06;;;;;;;22.60;11.13;;;;;;;-1.20;100.00;99637.19;5011300;28;20547;-86
2023/12/17 02:12:32;;;;;;;23.77;11.65;;;;;;;-1.20;100.00;99642.41;4998473;28;20431;-85
2023/12/17 02:14:58;;;;;;;26.83;12.13;;;;;;;-1.20;100.00;99638.97;4998490;28;20907;-85
2023/12/17 02:17:29;;;;;;;27.27;12.00;;;;;;;-1.23;100.00;99627.06;4998994;28;20398;-86
2023/12/17 02:19:55;;;;;;;21.02;11.27;;;;;;;-1.23;100.00;99636.63;4998697;28;20395;-86
2023/12/17 02:22:22;;;;;;;24.07;11.27;;;;;;;-1.24;100.00;99637.56;4997938;28;20430;-85
2023/12/17 02:24:50;;;;;;;33.72;14.43;;;;;;;-1.27;100.00;99643.84;4998804;28;20402;-85
2023/12/17 02:27:20;;;;;;;28.90;14.43;;;;;;;-1.26;100.00;99645.50;4998510;28;20414;-85
2023/12/17 02:29:46;;;;;;;30.42;13.75;;;;;;;-1.24;100.00;99645.38;4998065;28;20421;-86
2023/12/17 02:32:13;;;;;;;31.65;13.93;;;;;;;-1.24;100.00;99641.00;5003186;28;20486;-86
2023/12/17 02:34:39;;;;;;;30.77;14.55;;;;;;;-1.24;100.00;99642.78;5003014;28;20422;-86
2023/12/17 02:37:05;;;;;;;31.17;15.23;;;;;;;-1.26;100.00;99635.09;5003650;28;20398;-85
2023/12/17 02:39:31;;;;;;;29.88;14.35;;;;;;;-1.26;100.00;99629.91;5002059;28;20476;-86
2023/12/17 02:41:59;;;;;;;25.75;12.98;;;;;;;-1.26;100.00;99637.69;5001424;28;20399;-86
2023/12/17 02:44:25;;;;;;;22.92;11.38;;;;;;;-1.28;100.00;99643.97;5000991;28;20480;-85
2023/12/17 02:46:51;;;;;;;18.63;9.90;;;;;;;-1.32;100.00;99653.78;5002042;28;20405;-85
2023/12/17 02:49:18;;;;;;;20.27;10.03;;;;;;;-1.34;100.00;99647.03;5003335;28;20415;-86
2023/12/17 02:51:44;;;;;;;21.90;10.60;;;;;;;-1.36;100.00;99641.16;4996633;28;20445;-85
2023/12/17 02:54:10;;;;;;;28.75;13.00;;;;;;;-1.36;100.00;99631.59;4995548;28;20422;-85
2023/12/17 02:56:38;;;;;;;27.92;13.07;;;;;;;-1.36;100.00;99629.00;4996032;28;20421;-86
2023/12/17 02:59:07;;;;;;;29.65;14.57;;;;;;;-1.35;100.00;99616.81;4997646;28;20415;-85
2023/12/17 03:01:33;;;;;;;29.50;13.35;;;;;;;-1.35;100.00;99620.22;4999523;28;20882;-86
2023/12/17 03:03:59;;;;;;;32.70;13.73;;;;;;;-1.35;100.00;99617.63;5015243;28;20400;-86
2023/12/17 03:06:25;;;;;;;27.27;12.88;;;;;;;-1.37;100.00;99609.16;5015315;28;20496;-86
2023/12/17 03:08:52;;;;;;;26.17;12.55;;;;;;;-1.40;100.00;99609.38;5014710;28;20401;-86
2023/12/17 03:11:18;;;;;;;25.17;12.38;;;;;;;-1.42;100.00;99620.81;5015315;28;20431;-85
2023/12/17 03:13:44;;;;;;;24.13;12.52;;;;;;;-1.46;100.00;99615.06;5014483;28;20948;-85
2023/12/17 03:16:11;;;;;;;37.97;16.63;;;;;;;-1.47;100.00;99608.22;5015283;28;20405;-85
2023/12/17 03:18:38;;;;;;;43.33;18.80;;;;;;;-1.48;100.00;99611.75;5014756;28;20419;-85
2023/12/17 03:21:06;;;;;;;43.17;18.17;;;;;;;-1.47;100.00;99600.41;5014615;28;20408;-86
2023/12/17 03:23:32;;;;;;;43.15;18.48;;;;;;;-1.46;100.00;99599.47;5014559;28;20405;-86
2023/12/17 03:25:58;;;;;;;35.70;16.85;;;;;;;-1.44;100.00;99600.19;5014497;28;20448;-86
2023/12/17 03:28:24;;;;;;;34.05;16.45;;;;;;;-1.46;100.00;99591.69;5014422;28;20397;-85
2023/12/17 03:30:50;;;;;;;34.95;16.58;;;;;;;-1.45;100.00;99595.13;5014631;28;20416;-86
2023/12/17 03:33:18;;;;;;;42.60;18.60;;;;;;;-1.46;100.00;99588.25;5014348;28;20396;-86
2023/12/17 03:35:44;;;;;;;41.15;17.70;;;;;;;-1.44;100.00;99582.00;5014939;28;20404;-86
2023/12/17 03:38:10;;;;;;;35.47;17.65;;;;;;;-1.44;100.00;99583.78;5010679;28;20514;-86
2023/12/17 03:40:36;;;;;;;39.45;16.95;;;;;;;-1.43;100.00;99588.03;4995022;28;20902;-86
2023/12/17 03:43:03;;;;;;;38.78;17.00;;;;;;;-1.42;100.00;99574.06;4995080;28;20870;-86
2023/12/17 03:45:31;;;;;;;36.03;16.85;;;;;;;-1.44;100.00;99561.22;4994983;28;20405;-86
2023/12/17 03:47:57;;;;;;;42.78;18.02;;;;;;;-1.43;100.00;99567.25;4995210;28;20409;-86
2023/12/17 03:50:25;;;;;;;40.17;17.27;;;;;;;-1.44;100.00;99565.59;4995121;28;20402;-85
2023/12/17 03:52:51;;;;;;;34.95;16.67;;;;;;;-1.43;100.00;99562.06;4995501;28;20491;-85
2023/12/17 03:55:18;;;;;;;37.42;15.95;;;;;;;-1.46;100.00;99552.72;5017532;28;20436;-87
2023/12/17 03:57:47;;;;;;;30.45;14.82;;;;;;;-1.47;100.00;99558.88;5018149;28;20486;-86
2023/12/17 04:00:15;;;;;;;27.98;13.73;;;;;;;-1.49;100.00;99560.75;5018252;28;20445;-88
2023/12/17 04:02:41;;;;;;;27.65;13.82;;;;;;;-1.51;100.00;99567.03;5018161;28;20413;-87
2023/12/17 04:05:09;;;;;;;34.28;13.73;;;;;;;-1.52;100.00;99567.97;5014256;28;20429;-86
2023/12/17 04:07:36;;;;;;;35.65;14.00;;;;;;;-1.53;100.00;99571.50;4997487;28;20445;-86
2023/12/17 04:10:03;;;;;;;34.58;14.75;;;;;;;-1.56;100.00;99565.59;4996723;28;20810;-86
2023/12/17 04:12:30;;;;;;;33.33;15.02;;;;;;;-1.55;100.00;99563.84;4998053;28;20410;-86
2023/12/17 04:14:56;;;;;;;30.48;14.50;;;;;;;-1.54;100.00;99556.88;4994789;28;20425;-86
2023/12/17 04:17:22;;;;;;;42.42;15.18;;;;;;;-1.55;100.00;99550.84;4994579;28;20425;-86
2023/12/17 04:19:48;;;;;;;29.67;13.35;;;;;;;-1.54;100.00;99555.09;4996334;28;20486;-85
2023/12/17 04:22:14;;;;;;;28.45;13.30;;;;;;;-1.54;100.00;99562.91;5011019;28;20758;-85
2023/12/17 04:24:42;;;;;;;30.45;13.75;;;;;;;-1.54;100.00;99555.09;4998100;28;20417;-86
2023/12/17 04:27:08;;;;;;;30.05;13.23;;;;;;;-1.54;100.00;99562.91;4998556;28;20413;-86
2023/12/17 04:29:34;;;;;;;26.38;12.30;;;;;;;-1.56;100.00;99559.59;4998231;28;20425;-86
2023/12/17 04:32:00;;;;;;;24.33;11.93;;;;;;;-1.58;100.00;99557.09;4998368;28;20405;-85
2023/12/17 04:34:27;;;;;;;28.98;12.18;;;;;;;-1.57;100.00;99563.13;4998622;28;20468;-86
2023/12/17 04:36:54;;;;;;;28.30;13.10;;;;;;;-1.58;100.00;99564.91;4998052;28;20472;-86
2023/12/17 04:39:20;;;;;;;34.58;14.48;;;;;;;-1.57;100.00;99560.53;4998430;28;20431;-86
2023/12/17 04:41:48;;;;;;;38.97;15.70;;;;;;;-1.57;100.00;99557.94;4998204;28;20437;-86
2023/12/17 04:44:14;;;;;;;32.55;14.30;;;;;;;-1.56;100.00;99552.63;4998426;28;20442;-85
2023/12/17 04:46:40;;;;;;;38.08;15.88;;;;;;;-1.55;100.00;99556.03;4998822;28;20406;-86
2023/12/17 04:49:06;;;;;;;45.25;16.70;;;;;;;-1.56;100.00;99554.38;4997764;28;20399;-86
2023/12/17 04:51:32;;;;;;;31.35;14.18;;;;;;;-1.58;100.00;99545.91;4998372;28;20398;-86
2023/12/17 04:53:58;;;;;;;31.42;13.95;;;;;;;-1.59;100.00;99552.88;4998191;28;20418;-86
2023/12/17 04:56:25;;;;;;;31.73;13.57;;;;;;;-1.59;100.00;99544.28;4997925;28;20402;-86
2023/12/17 04:58:52;;;;;;;38.83;15.63;;;;;;;-1.59;100.00;99549.47;4998459;28;20398;-86
2023/12/17 05:01:18;;;;;;;29.63;13.23;;;;;;;-1.61;100.00;99546.16;4998727;28;20398;-86
2023/12/17 05:03:45;;;;;;;34.70;14.95;;;;;;;-1.62;100.00;99545.31;4999546;28;20409;-86
2023/12/17 05:06:11;;;;;;;33.47;12.95;;;;;;;-1.61;100.00;99546.16;4998726;28;20457;-86
2023/12/17 05:08:37;;;;;;;28.02;12.57;;;;;;;-1.61;100.00;99535.75;4998065;28;20410;-86
2023/12/17 05:11:03;;;;;;;25.05;11.90;;;;;;;-1.62;100.00;99534.09;4998046;28;20402;-86
2023/12/17 05:13:29;;;;;;;28.13;12.82;;;;;;;-1.62;100.00;99540.13;4998213;28;20406;-86
2023/12/17 05:15:57;;;;;;;28.60;12.30;;;;;;;-1.62;100.00;99537.53;4998544;28;20410;-86
2023/12/17 05:18:23;;;;;;;29.98;13.77;;;;;;;-1.62;100.00;99534.94;4997987;28;20429;-87
2023/12/17 05:20:49;;;;;;;28.60;13.73;;;;;;;-1.60;100.00;99532.22;4999871;28;20424;-86
2023/12/17 05:23:15;;;;;;;32.63;13.95;;;;;;;-1.60;100.00;99529.63;4999476;28;20895;-86
2023/12/17 05:25:42;;;;;;;33.13;14.25;;;;;;;-1.60;100.00;99525.25;5000105;28;20407;-86
2023/12/17 05:28:09;;;;;;;58.88;22.33;;;;;;;-1.58;100.00;99525.94;5004083;28;20410;-85
2023/12/17 05:30:35;;;;;;;49.67;19.95;;;;;;;-1.57;100.00;99513.78;5004346;28;20405;-85
2023/12/17 05:33:02;;;;;;;44.80;18.27;;;;;;;-1.57;100.00;99519.81;5003119;28;20414;-85
2023/12/17 05:35:28;;;;;;;46.47;18.17;;;;;;;-1.56;100.00;99516.28;4997580;28;20457;-86
2023/12/17 05:37:55;;;;;;;42.78;16.98;;;;;;;-1.55;100.00;99517.09;4997517;28;20410;-86
2023/12/17 05:40:21;;;;;;;30.60;14.85;;;;;;;-1.55;100.00;99514.50;4997316;28;20402;-86
2023/12/17 05:42:47;;;;;;;31.83;13.80;;;;;;;-1.54;100.00;99510.13;4997097;28;20394;-86
2023/12/17 05:45:13;;;;;;;34.23;13.90;;;;;;;-1.54;100.00;99502.34;4997309;28;20544;-86
2023/12/17 05:47:40;;;;;;;38.75;15.07;;;;;;;-1.53;100.00;99509.19;4997703;28;20410;-86
2023/12/17 05:50:10;;;;;;;36.08;14.95;;;;;;;-1.56;100.00;99500.69;4997239;28;20403;-86
2023/12/17 05:52:36;;;;;;;33.53;14.10;;;;;;;-1.55;100.00;99501.50;4997063;28;20399;-86
2023/12/17 05:55:03;;;;;;;37.17;15.37;;;;;;;-1.56;100.00;99502.47;4996725;28;20505;-85
2023/12/17 05:57:29;;;;;;;35.17;13.93;;;;;;;-1.56;100.00;99508.47;4997129;28;20405;-85
2023/12/17 05:59:55;;;;;;;39.78;15.75;;;;;;;-1.57;100.00;99508.59;4996559;28;20409;-86
2023/12/17 06:02:21;;;;;;;39.83;15.65;;;;;;;-1.56;100.00;99518.03;4996282;28;20410;-86
2023/12/17 06:04:47;;;;;;;40.42;16.52;;;;;;;-1.56;100.00;99529.25;4996454;28;20421;-86
2023/12/17 06:07:15;;;;;;;36.57;14.37;;;;;;;-1.55;100.00;99532.69;4996874;28;20506;-85
2023/12/17 06:09:41;;;;;;;30.40;13.40;;;;;;;-1.56;100.00;99531.84;4996892;28;20405;-86
2023/12/17 06:12:07;;;;;;;36.22;15.13;;;;;;;-1.54;100.00;99541.28;4996655;28;20487;-86
2023/12/17 06:14:33;;;;;;;38.17;15.30;;;;;;;-1.53;100.00;99535.16;4997963;28;20469;-86
2023/12/17 06:17:00;;;;;;;37.75;14.93;;;;;;;-1.52;100.00;99535.03;4996914;28;20399;-86
2023/12/17 06:19:26;;;;;;;43.57;18.23;;;;;;;-1.53;100.00;99538.59;5003483;28;20763;-86
2023/12/17 06:21:52;;;;;;;46.80;17.55;;;;;;;-1.53;100.00;99543.78;4997238;28;20410;-86
2023/12/17 06:24:19;;;;;;;48.85;17.95;;;;;;;-1.54;100.00;99544.72;4996689;28;20406;-85
2023/12/17 06:26:45;;;;;;;41.13;16.15;;;;;;;-1.54;100.00;99543.88;4996920;28;20391;-86
2023/12/17 06:29:13;;;;;;;45.58;17.73;;;;;;;-1.56;100.00;99539.63;4997039;28;20452;-86
2023/12/17 06:31:42;;;;;;;40.37;15.60;;;;;;;-1.56;100.00;99542.22;4996487;28;20403;-86
2023/12/17 06:34:08;;;;;;;35.25;15.32;;;;;;;-1.56;100.00;99544.00;5009063;28;20478;-85
2023/12/17 06:36:35;;;;;;;36.53;14.85;;;;;;;-1.59;100.00;99539.91;4996459;28;20497;-86
2023/12/17 06:39:01;;;;;;;44.25;15.88;;;;;;;-1.61;100.00;99546.97;4996159;28;20430;-86
2023/12/17 06:41:28;;;;;;;34.58;14.70;;;;;;;-1.62;100.00;99542.72;4996222;28;20465;-87
2023/12/17 06:43:54;;;;;;;43.58;15.93;;;;;;;-1.64;100.00;99546.38;4996751;28;20442;-86
2023/12/17 06:46:21;;;;;;;36.95;14.02;;;;;;;-1.66;100.00;99538.75;4997714;28;20434;-85
2023/12/17 06:48:49;;;;;;;35.67;14.75;;;;;;;-1.66;100.00;99548.28;4996374;28;20426;-86
2023/12/17 06:51:15;;;;;;;37.92;14.98;;;;;;;-1.68;100.00;99547.59;4996358;28;20413;-86
2023/12/17 06:53:41;;;;;;;47.17;15.88;;;;;;;-1.68;100.00;99551.00;4997115;28;20803;-86
2023/12/17 06:56:08;;;;;;;46.88;15.65;;;;;;;-1.66;100.00;99550.88;4997111;28;20896;-86
2023/12/17 06:58:36;;;;;;;50.35;15.98;;;;;;;-1.66;100.00;99553.50;4995870;28;20406;-86
2023/12/17 07:01:02;;;;;;;38.88;16.08;;;;;;;-1.66;100.00;99550.88;4996456;28;20763;-86
2023/12/17 07:03:29;;;;;;;32.90;14.35;;;;;;;-1.67;100.00;99557.84;4998324;28;20403;-86
2023/12/17 07:05:55;;;;;;;34.83;13.85;;;;;;;-1.69;100.00;99551.94;4998413;28;20408;-86
2023/12/17 07:08:21;;;;;;;36.28;14.20;;;;;;;-1.69;100.00;99556.31;4998884;28;20875;-86
2023/12/17 07:10:47;;;;;;;34.75;14.05;;;;;;;-1.69;100.00;99556.31;4999351;28;20403;-85
2023/12/17 07:13:13;;;;;;;30.75;12.73;;;;;;;-1.71;100.00;99559.03;4992513;28;20400;-86
2023/12/17 07:15:40;;;;;;;27.37;11.63;;;;;;;-1.72;100.00;99554.78;4981230;28;20507;-85
2023/12/17 07:18:07;;;;;;;29.27;11.37;;;;;;;-1.70;100.00;99557.25;4979436;28;20423;-85
2023/12/17 07:20:33;;;;;;;35.95;14.65;;;;;;;-1.70;100.00;99549.47;4978296;28;20499;-85
2023/12/17 07:22:59;;;;;;;35.20;13.98;;;;;;;-1.70;100.00;99542.50;4977255;28;20448;-85
2023/12/17 07:25:26;;;;;;;31.10;13.20;;;;;;;-1.67;100.00;99549.22;4978137;28;20415;-85
2023/12/17 07:27:53;;;;;;;28.80;12.63;;;;;;;-1.65;100.00;99552.50;4978659;28;20404;-85
2023/12/17 07:30:19;;;;;;;33.95;14.15;;;;;;;-1.62;100.00;99542.72;4978302;28;20400;-85
2023/12/17 07:32:47;;;;;;;33.20;12.97;;;;;;;-1.60;100.00;99538.25;4979589;28;20475;-86
2023/12/17 07:35:14;;;;;;;50.88;17.83;;;;;;;-1.57;100.00;99537.97;4981256;28;20537;-85
2023/12/17 07:37:40;;;;;;;42.97;16.37;;;;;;;-1.54;100.00;99539.53;4996923;28;20402;-85
2023/12/17 07:40:07;;;;;;;34.50;14.45;;;;;;;-1.49;100.00;99541.75;4995929;28;20830;-85
2023/12/17 07:42:34;;;;;;;34.95;14.55;;;;;;;-1.49;100.00;99545.16;4995502;28;20395;-84
2023/12/17 07:45:00;;;;;;;36.63;13.93;;;;;;;-1.45;100.00;99544.00;4994144;28;20414;-84
2023/12/17 07:47:26;;;;;;;29.02;12.75;;;;;;;-1.44;100.00;99537.84;4992743;28;20508;-85
2023/12/17 07:49:54;;;;;;;26.60;11.75;;;;;;;-1.41;100.00;99544.56;4990845;28;20425;-86
2023/12/17 07:52:20;;;;;;;29.17;12.25;;;;;;;-1.38;100.00;99539.97;4980381;28;20410;-85
2023/12/17 07:54:47;;;;;;;34.67;12.93;;;;;;;-1.35;100.00;99538.88;4989723;28;20418;-84
2023/12/17 07:57:13;;;;;;;39.47;15.27;;;;;;;-1.32;100.00;99539.47;4988079;28;20891;-85
2023/12/17 07:59:39;;;;;;;42.70;15.77;;;;;;;-1.29;100.00;99541.81;4993559;28;20398;-84
2023/12/17 08:02:06;;;;;;;36.65;15.68;;;;;;;-1.26;100.00;99540.72;4995116;28;20398;-84
2023/12/17 08:04:35;;;;;;;42.27;16.33;;;;;;;-1.23;100.00;99537.91;4994363;28;20444;-84
2023/12/17 08:07:04;;;;;;;48.60;19.13;;;;;;;-1.22;100.00;99530.00;4995912;28;20410;-85
2023/12/17 08:09:34;;;;;;;47.28;18.98;;;;;;;-1.18;100.00;99543.53;4998933;28;20444;-85
2023/12/17 08:12:00;;;;;;;56.17;21.50;;;;;;;-1.16;100.00;99531.25;5002581;28;20394;-85
2023/12/17 08:14:27;;;;;;;55.88;21.00;;;;;;;-1.13;100.00;99531.03;4993219;28;20436;-85
2023/12/17 08:16:53;;;;;;;53.63;19.15;;;;;;;-1.10;100.00;99524.72;4982498;28;20734;-85
2023/12/17 08:19:19;;;;;;;45.38;18.05;;;;;;;-1.08;100.00;99526.28;4993822;28;20794;-85
2023/12/17 08:21:45;;;;;;;42.63;17.60;;;;;;;-1.06;100.00;99526.97;4994051;28;20398;-85
2023/12/17 08:24:13;;;;;;;36.05;15.52;;;;;;;-1.05;100.00;99543.41;4992190;28;20411;-85
2023/12/17 08:26:39;;;;;;;42.63;16.38;;;;;;;-1.03;100.00;99544.91;4992887;28;20406;-85
2023/12/17 08:29:05;;;;;;;63.35;21.90;;;;;;;-0.99;100.00;99546.31;4992777;28;20780;-85
2023/12/17 08:31:33;;;;;;;51.15;19.17;;;;;;;-0.98;100.00;99545.38;4994080;28;20398;-85
2023/12/17 08:33:59;;;;;;;60.25;21.02;;;;;;;-0.95;100.00;99539.06;4992984;28;20454;-85
2023/12/17 08:36:27;;;;;;;53.78;20.48;;;;;;;-0.93;100.00;99534.59;4994039;28;20756;-85
2023/12/17 08:38:54;;;;;;;51.97;19.55;;;;;;;-0.91;100.00;99536.13;4993818;28;20398;-85
2023/12/17 08:41:21;;;;;;;39.38;16.65;;;;;;;-0.88;100.00;99542.81;4995393;28;20465;-85
2023/12/17 08:43:48;;;;;;;39.10;16.45;;;;;;;-0.86;100.00;99531.38;4998750;28;20457;-85
2023/12/17 08:46:14;;;;;;;60.58;24.13;;;;;;;-0.85;100.00;99538.22;4998715;28;20410;-85
2023/12/17 08:48:40;;;;;;;56.22;20.95;;;;;;;-0.81;100.00;99536.16;4993881;28;20406;-85
2023/12/17 08:51:06;;;;;;;42.20;19.17;;;;;;;-0.79;100.00;99534.28;4993143;28;20456;-85
2023/12/17 08:53:33;;;;;;;46.85;19.98;;;;;;;-0.76;100.00;99530.63;4993101;28;20414;-85
2023/12/17 08:55:59;;;;;;;61.70;23.17;;;;;;;-0.75;100.00;99517.47;4993835;28;20477;-85
2023/12/17 08:58:26;;;;;;;50.15;22.27;;;;;;;-0.71;100.00;99512.84;4993044;28;20394;-85
2023/12/17 09:00:52;;;;;;;62.97;26.95;;;;;;;-0.69;100.00;99509.19;4993140;28;20414;-85
2023/12/17 09:03:19;;;;;;;51.08;23.92;;;;;;;-0.64;100.00;99513.97;4993188;28;20406;-84
2023/12/17 09:05:45;;;;;;;42.80;21.67;;;;;;;-0.60;100.00;99510.97;4994079;28;20469;-85
2023/12/17 09:08:12;;;;;;;41.95;20.35;;;;;;;-0.55;100.00;99515.81;4996971;28;20402;-84
2023/12/17 09:10:38;;;;;;;53.10;23.35;;;;;;;-0.50;100.00;99511.88;4996943;28;20430;-85
2023/12/17 09:13:04;;;;;;;52.70;25.40;;;;;;;-0.46;100.00;99510.69;4997022;28;20406;-85
2023/12/17 09:15:32;;;;;;;51.38;24.10;;;;;;;-0.40;100.00;99512.75;4999653;28;20490;-85
2023/12/17 09:17:58;;;;;;;61.65;29.15;;;;;;;-0.34;100.00;99514.00;5000969;28;20436;-85
2023/12/17 09:20:24;;;;;;;95.63;38.55;;;;;;;-0.30;100.00;99518.00;5001960;28;20457;-86
2023/12/17 09:22:52;;;;;;;62.58;30.35;;;;;;;-0.23;100.00;99510.50;5004865;28;20473;-86
2023/12/17 09:25:18;;;;;;;54.80;25.48;;;;;;;-0.17;100.00;99510.81;5017104;28;20401;-85
2023/12/17 09:27:44;;;;;;;46.33;23.70;;;;;;;-0.11;100.00;99518.09;5017333;28;20413;-85
2023/12/17 09:30:11;;;;;;;46.97;24.57;;;;;;;-0.05;100.00;99524.53;5016607;28;20421;-85
2023/12/17 09:32:38;;;;;;;44.75;24.60;;;;;;;0.06;100.00;99521.03;5002989;28;20399;-83
2023/12/17 09:35:05;;;;;;;49.78;25.55;;;;;;;0.15;100.00;99518.44;4997526;28;20433;-83
2023/12/17 09:37:32;;;;;;;49.25;25.80;;;;;;;0.25;100.00;99521.91;4998154;28;20763;-83
2023/12/17 09:39:58;;;;;;;52.00;28.70;;;;;;;0.34;100.00;99528.09;4995204;28;20457;-82
2023/12/17 09:42:24;;;;;;;66.93;31.90;;;;;;;0.42;100.00;99525.66;4994873;28;20414;-83
2023/12/17 09:44:51;;;;;;;103.95;44.38;;;;;;;0.50;100.00;99522.38;4995339;28;20775;-84
2023/12/17 09:47:17;;;;;;;70.35;36.08;;;;;;;0.60;100.00;99515.41;4994995;28;20413;-82
2023/12/17 09:49:45;;;;;;;52.22;29.27;;;;;;;0.73;100.00;99514.19;4998426;28;20409;-82
2023/12/17 09:52:12;;;;;;;40.67;25.48;;;;;;;0.88;100.00;99512.00;4999859;28;20403;-81
2023/12/17 09:54:39;;;;;;;43.55;23.88;;;;;;;1.00;100.00;99508.25;4997490;28;20516;-82
2023/12/17 09:57:09;;;;;;;42.80;23.83;;;;;;;1.14;100.00;99496.59;4997783;28;20872;-82
2023/12/17 09:59:35;;;;;;;34.05;20.35;;;;;;;1.30;100.00;99504.66;4998113;28;20406;-82
2023/12/17 10:02:01;;;;;;;28.40;17.70;;;;;;;1.47;100.00;99500.50;4994822;28;20399;-82
2023/12/17 10:04:28;;;;;;;19.30;12.27;;;;;;;1.76;100.00;99508.25;4995626;28;20927;-82
2023/12/17 10:06:55;;;;;;;14.82;9.90;;;;;;;2.17;100.00;99499.97;4995647;28;20403;-82
2023/12/17 10:09:22;;;;;;;26.45;12.52;;;;;;;2.91;100.00;99497.13;4997830;28;20469;-82
2023/12/17 10:11:48;;;;;;;49.63;14.65;;;;;;;3.87;100.00;99496.13;4995598;28;20449;-82
2023/12/17 10:14:21;;;;;;;16.73;7.32;;;;;;;5.01;100.00;99497.25;4994219;28;20426;-82
2023/12/17 10:16:47;;;;;;;24.07;9.43;;;;;;;5.98;100.00;99487.59;4993577;28;20398;-82
2023/12/17 10:19:14;;;;;;;55.78;13.73;;;;;;;6.85;100.00;99483.81;4993655;28;20493;-82
2023/12/17 10:21:40;;;;;;;11.32;5.75;;;;;;;7.56;100.00;99477.31;4994393;28;20981;-82
2023/12/17 10:24:09;;;;;;;10.82;5.32;;;;;;;8.20;100.00;99480.19;4994262;28;20473;-82
2023/12/17 10:26:42;;;;;;;4.60;3.90;;;;;;;8.68;100.00;99471.63;4994001;28;20409;-83
2023/12/17 10:29:12;;;;;;;5.13;4.25;;;;;;;9.09;100.00;99465.75;4994033;28;20414;-83
2023/12/17 10:31:39;;;;;;;5.15;3.72;;;;;;;9.55;100.00;99460.78;4996202;28;20418;-83
2023/12/17 10:34:15;;;;;;;4.88;4.00;;;;;;;9.99;100.00;99457.78;4998665;28;20394;-83
2023/12/17 10:36:42;;;;;;;4.37;3.43;;;;;;;10.43;100.00;99460.84;4999307;28;20905;-83
2023/12/17 10:39:11;;;;;;;5.13;3.65;;;;;;;10.94;100.00;99448.91;4998163;28;20422;-83
2023/12/17 10:41:38;;;;;;;3.60;3.13;;;;;;;11.33;100.00;99458.72;4998641;28;20891;-83
2023/12/17 10:44:05;;;;;;;3.70;2.90;;;;;;;11.64;100.00;99453.59;4998726;28;20402;-84
2023/12/17 10:46:33;;;;;;;3.60;2.85;;;;;;;11.84;100.00;99443.75;4998264;28;20461;-84
2023/12/17 10:48:59;;;;;;;3.70;3.00;;;;;;;11.94;100.00;99446.00;4999635;28;20398;-84
2023/12/17 10:51:26;;;;;;;7.18;5.35;;;;;;;11.77;100.00;99439.50;5002375;28;20457;-84
2023/12/17 10:53:53;;;;;;;7.95;5.75;;;;;;;11.55;100.00;99439.72;5003848;28;20405;-84
2023/12/17 10:56:21;;;;;;;7.88;5.80;;;;;;;11.13;100.00;99434.84;5003522;28;20398;-84
2023/12/17 10:58:47;;;;;;;8.45;6.15;;;;;;;11.01;100.00;99431.19;5001125;28;20403;-84
2023/12/17 11:01:14;;;;;;;6.15;4.93;;;;;;;10.92;100.00;99427.91;5001694;28;20398;-85
2023/12/17 11:03:41;;;;;;;9.25;6.07;;;;;;;10.77;100.00;99436.06;5001334;28;20401;-83
2023/12/17 11:06:09;;;;;;;8.07;5.50;;;;;;;10.64;100.00;99424.63;5001898;28;20434;-84
2023/12/17 11:08:36;;;;;;;8.15;5.40;;;;;;;10.65;100.00;99419.16;5004985;28;20438;-84